Time;durP1;ratioP1;P1;durP2;ratioP2;P2;SDS_P1;SDS_P2;PMS_P1;PMS_P2;Temp;Humidity;BMP_temperature;BMP_pressure;BME280_temperature;BME280_humidity;BME280_pressure;Samples;Min_cycle;Max_cycle;Signal;HPM_P1;HPM_P2
2023/12/11 00:01:58;;;;;;;11.43;3.40;;;;;;;;;;5069695;27;88357;-83
2023/12/11 00:04:25;;;;;;;12.73;3.40;;;;;;;;;;5051992;27;88717;-83
2023/12/11 00:06:52;;;;;;;15.57;3.35;;;;;;;;;;5072440;27;90771;-84
2023/12/11 00:09:18;;;;;;;16.15;3.58;;;;;;;;;;5069060;27;87648;-83
2023/12/11 00:11:45;;;;;;;14.35;3.40;;;;;;;;;;5069848;27;87593;-83
2023/12/11 00:14:11;;;;;;;14.63;3.40;;;;;;;;;;5069174;27;90123;-83
2023/12/11 00:16:38;;;;;;;12.82;3.35;;;;;;;;;;5069039;27;89566;-83
2023/12/11 00:19:04;;;;;;;11.63;3.17;;;;;;;;;;5069325;27;89360;-82
2023/12/11 00:21:31;;;;;;;14.73;3.70;;;;;;;;;;5070784;27;88102;-81
2023/12/11 00:23:59;;;;;;;13.48;3.25;;;;;;;;;;5067566;27;86892;-82
2023/12/11 00:26:26;;;;;;;12.82;3.40;;;;;;;;;;5067923;27;87736;-80
2023/12/11 00:28:52;;;;;;;16.80;3.50;;;;;;;;;;5072050;27;88309;-81
2023/12/11 00:31:19;;;;;;;14.93;3.45;;;;;;;;;;5069065;27;88233;-81
2023/12/11 00:33:45;;;;;;;13.85;3.83;;;;;;;;;;5067397;27;88047;-82
2023/12/11 00:36:12;;;;;;;13.75;3.33;;;;;;;;;;5070053;27;87718;-83
2023/12/11 00:38:39;;;;;;;15.32;3.75;;;;;;;;;;5068484;27;89635;-82
2023/12/11 00:41:07;;;;;;;15.10;3.80;;;;;;;;;;5047879;27;91182;-81
2023/12/11 00:43:33;;;;;;;15.25;3.42;;;;;;;;;;5047861;28;87633;-82
2023/12/11 00:46:12;;;;;;;15.13;3.33;;;;;;;;;;5069260;27;91593;-82
2023/12/11 00:48:39;;;;;;;15.73;3.50;;;;;;;;;;5068754;27;89777;-82
2023/12/11 00:51:06;;;;;;;16.67;3.80;;;;;;;;;;5072089;27;89486;-83
2023/12/11 00:53:32;;;;;;;14.45;3.33;;;;;;;;;;5069174;27;88555;-82
2023/12/11 00:55:59;;;;;;;16.95;3.50;;;;;;;;;;5067228;27;89714;-82
2023/12/11 00:58:25;;;;;;;14.98;3.05;;;;;;;;;;5068089;27;89072;-81
2023/12/11 01:00:52;;;;;;;15.50;3.22;;;;;;;;;;5066060;27;90693;-82
2023/12/11 01:03:19;;;;;;;14.55;3.22;;;;;;;;;;5066782;27;88824;-83
2023/12/11 01:05:47;;;;;;;16.70;3.67;;;;;;;;;;5050926;27;89684;-81
2023/12/11 01:08:14;;;;;;;16.88;3.13;;;;;;;;;;5051016;27;90700;-82
2023/12/11 01:10:40;;;;;;;17.02;3.50;;;;;;;;;;5067866;27;87567;-83
2023/12/11 01:13:07;;;;;;;16.42;3.33;;;;;;;;;;5055239;27;90949;-83
2023/12/11 01:15:34;;;;;;;14.98;3.42;;;;;;;;;;5068527;27;87930;-83
2023/12/11 01:18:00;;;;;;;17.67;3.78;;;;;;;;;;5050720;27;89830;-83
2023/12/11 01:20:27;;;;;;;14.32;3.00;;;;;;;;;;5067481;27;92226;-82
2023/12/11 01:22:53;;;;;;;13.40;3.17;;;;;;;;;;5069363;27;87923;-81
2023/12/11 01:25:20;;;;;;;16.15;3.10;;;;;;;;;;5067693;27;90550;-83
2023/12/11 01:27:47;;;;;;;12.23;2.95;;;;;;;;;;5069405;27;88604;-83
2023/12/11 01:30:13;;;;;;;14.75;3.30;;;;;;;;;;5068303;27;87714;-82
2023/12/11 01:32:40;;;;;;;16.00;3.40;;;;;;;;;;5051535;27;90645;-83
2023/12/11 01:35:07;;;;;;;18.05;3.35;;;;;;;;;;5072814;27;88267;-83
2023/12/11 01:37:34;;;;;;;16.42;3.33;;;;;;;;;;5069915;27;87770;-82
2023/12/11 01:40:00;;;;;;;13.40;3.75;;;;;;;;;;5068359;27;88306;-83
2023/12/11 01:42:27;;;;;;;14.52;2.90;;;;;;;;;;5069353;27;87991;-84
2023/12/11 01:44:53;;;;;;;12.88;2.97;;;;;;;;;;5068825;27;88271;-84
2023/12/11 01:47:20;;;;;;;16.15;3.55;;;;;;;;;;5051378;27;90590;-83
2023/12/11 01:49:47;;;;;;;15.48;3.15;;;;;;;;;;5067533;27;89742;-82
2023/12/11 01:52:13;;;;;;;14.30;3.13;;;;;;;;;;5067681;27;87897;-83
2023/12/11 01:54:41;;;;;;;15.57;3.38;;;;;;;;;;5067668;27;91134;-83
2023/12/11 01:57:08;;;;;;;16.08;3.53;;;;;;;;;;5069431;27;87516;-82
2023/12/11 01:59:35;;;;;;;15.75;3.05;;;;;;;;;;5048457;27;90981;-81
2023/12/11 02:02:02;;;;;;;16.38;3.10;;;;;;;;;;5049866;27;89191;-83
2023/12/11 02:04:29;;;;;;;16.55;3.22;;;;;;;;;;5068428;27;87620;-83
2023/12/11 02:06:56;;;;;;;17.20;3.08;;;;;;;;;;5066723;27;88677;-83
2023/12/11 02:09:24;;;;;;;14.13;3.05;;;;;;;;;;5066354;27;88541;-83
2023/12/11 02:11:51;;;;;;;12.93;2.63;;;;;;;;;;5065591;27;90964;-83
2023/12/11 02:14:18;;;;;;;13.88;3.00;;;;;;;;;;5067797;27;88499;-83
2023/12/11 02:16:44;;;;;;;14.77;2.70;;;;;;;;;;5071056;27;88362;-80
2023/12/11 02:19:11;;;;;;;14.05;3.10;;;;;;;;;;5067089;27;88896;-81
2023/12/11 02:21:37;;;;;;;13.63;2.78;;;;;;;;;;5065872;27;87890;-82
2023/12/11 02:24:07;;;;;;;12.25;2.90;;;;;;;;;;5050239;27;90011;-80
2023/12/11 02:26:34;;;;;;;12.13;3.28;;;;;;;;;;5070226;27;88089;-80
2023/12/11 02:29:00;;;;;;;13.48;3.10;;;;;;;;;;5069447;27;88006;-81
2023/12/11 02:31:27;;;;;;;15.65;2.95;;;;;;;;;;5070288;27;88364;-81
2023/12/11 02:33:53;;;;;;;15.85;3.10;;;;;;;;;;5052431;27;91664;-81
2023/12/11 02:36:20;;;;;;;13.05;3.40;;;;;;;;;;5070379;27;88173;-82
2023/12/11 02:38:46;;;;;;;14.88;3.10;;;;;;;;;;5072800;27;90627;-82
2023/12/11 02:41:13;;;;;;;13.52;2.85;;;;;;;;;;5069913;27;87705;-82
2023/12/11 02:43:41;;;;;;;14.57;2.75;;;;;;;;;;5069732;27;88459;-83
2023/12/11 02:46:07;;;;;;;11.68;2.60;;;;;;;;;;5070051;27;90623;-82
2023/12/11 02:48:34;;;;;;;10.88;2.70;;;;;;;;;;5069257;27;89658;-81
2023/12/11 02:51:00;;;;;;;10.45;2.80;;;;;;;;;;5069218;27;91030;-82
2023/12/11 02:53:28;;;;;;;15.25;3.15;;;;;;;;;;5069768;27;88341;-81
2023/12/11 02:55:54;;;;;;;13.75;2.53;;;;;;;;;;5070098;27;87574;-81
2023/12/11 02:58:21;;;;;;;13.43;2.90;;;;;;;;;;5068881;27;90707;-81
2023/12/11 03:00:47;;;;;;;12.52;2.75;;;;;;;;;;5074092;27;89182;-81
2023/12/11 03:03:14;;;;;;;14.60;2.65;;;;;;;;;;5052857;27;90358;-80
2023/12/11 03:05:41;;;;;;;9.80;2.33;;;;;;;;;;5069246;27;88230;-82
2023/12/11 03:08:07;;;;;;;14.88;2.58;;;;;;;;;;5067440;27;89945;-84
2023/12/11 03:10:34;;;;;;;15.68;2.75;;;;;;;;;;5050246;27;90317;-84
2023/12/11 03:13:01;;;;;;;13.40;2.50;;;;;;;;;;5051217;27;88049;-82
2023/12/11 03:15:29;;;;;;;16.15;2.85;;;;;;;;;;5067876;27;86995;-83
2023/12/11 03:17:56;;;;;;;10.35;2.17;;;;;;;;;;5048555;27;89432;-81
2023/12/11 03:20:22;;;;;;;11.52;2.35;;;;;;;;;;5049024;27;90530;-82
2023/12/11 03:22:49;;;;;;;12.80;2.75;;;;;;;;;;5052680;27;88471;-81
2023/12/11 03:25:16;;;;;;;12.70;2.63;;;;;;;;;;5065107;27;90849;-81
2023/12/11 03:27:42;;;;;;;12.25;2.40;;;;;;;;;;5049303;27;87690;-81
2023/12/11 03:30:09;;;;;;;12.73;2.85;;;;;;;;;;5050156;27;88296;-80
2023/12/11 03:32:36;;;;;;;14.55;2.63;;;;;;;;;;5047891;27;88513;-81
2023/12/11 03:35:03;;;;;;;11.80;2.47;;;;;;;;;;5047692;27;89867;-81
2023/12/11 03:37:29;;;;;;;13.32;2.97;;;;;;;;;;5046844;27;88386;-80
2023/12/11 03:39:56;;;;;;;15.88;2.55;;;;;;;;;;5058433;27;93465;-81
2023/12/11 03:42:23;;;;;;;12.13;2.80;;;;;;;;;;5069976;27;87635;-80
2023/12/11 03:44:50;;;;;;;12.75;2.75;;;;;;;;;;5072108;27;87754;-82
2023/12/11 03:47:17;;;;;;;13.85;2.83;;;;;;;;;;5069014;27;93623;-80
2023/12/11 03:49:44;;;;;;;11.65;2.70;;;;;;;;;;5067075;27;91050;-81
2023/12/11 03:52:10;;;;;;;14.50;3.10;;;;;;;;;;5069320;27;87686;-80
2023/12/11 03:54:37;;;;;;;14.93;2.90;;;;;;;;;;5069454;27;87670;-80
2023/12/11 03:57:04;;;;;;;13.77;2.50;;;;;;;;;;5068280;27;88949;-80
2023/12/11 03:59:32;;;;;;;12.65;2.55;;;;;;;;;;5069295;27;88332;-80
2023/12/11 04:01:58;;;;;;;12.30;2.65;;;;;;;;;;5068531;27;87761;-80
2023/12/11 04:04:30;;;;;;;13.80;2.65;;;;;;;;;;5072836;27;88182;-80
2023/12/11 04:06:56;;;;;;;13.10;2.33;;;;;;;;;;5069764;27;93968;-81
2023/12/11 04:09:23;;;;;;;13.30;2.45;;;;;;;;;;5068236;27;90145;-81
2023/12/11 04:11:50;;;;;;;14.27;2.80;;;;;;;;;;5068025;27;89130;-82
2023/12/11 04:14:16;;;;;;;13.18;2.45;;;;;;;;;;5068526;27;87599;-81
2023/12/11 04:16:43;;;;;;;13.52;2.40;;;;;;;;;;5067071;27;89898;-81
2023/12/11 04:19:11;;;;;;;11.15;2.35;;;;;;;;;;5066586;27;90646;-81
2023/12/11 04:21:37;;;;;;;17.35;2.42;;;;;;;;;;5067986;27;87482;-82
2023/12/11 04:24:04;;;;;;;15.27;2.75;;;;;;;;;;5067110;27;90526;-81
2023/12/11 04:26:31;;;;;;;13.98;2.50;;;;;;;;;;5070671;27;88308;-82
2023/12/11 04:28:57;;;;;;;13.05;2.20;;;;;;;;;;5068453;27;88353;-79
2023/12/11 04:31:24;;;;;;;11.90;2.47;;;;;;;;;;5068387;27;88336;-80
2023/12/11 04:33:50;;;;;;;11.73;2.38;;;;;;;;;;5065947;27;87748;-82
2023/12/11 04:36:17;;;;;;;13.15;2.50;;;;;;;;;;5067525;27;88270;-82
2023/12/11 04:38:44;;;;;;;12.27;2.35;;;;;;;;;;5067227;27;88278;-83
2023/12/11 04:41:10;;;;;;;11.68;2.40;;;;;;;;;;5067528;27;87764;-81
2023/12/11 04:43:37;;;;;;;13.70;2.47;;;;;;;;;;5069096;27;88975;-81
2023/12/11 04:46:03;;;;;;;11.88;2.35;;;;;;;;;;5068422;27;90150;-82
2023/12/11 04:48:30;;;;;;;14.95;2.53;;;;;;;;;;5070086;27;89804;-82
2023/12/11 04:50:57;;;;;;;10.88;2.25;;;;;;;;;;5069262;27;87637;-81
2023/12/11 04:53:23;;;;;;;11.70;2.53;;;;;;;;;;5069385;27;87287;-81
2023/12/11 04:55:50;;;;;;;11.95;2.45;;;;;;;;;;5066435;27;88037;-79
2023/12/11 04:58:17;;;;;;;12.13;2.65;;;;;;;;;;5068577;27;88284;-80
2023/12/11 05:00:49;;;;;;;13.00;2.78;;;;;;;;;;5067789;27;88327;-79
2023/12/11 05:03:15;;;;;;;13.82;2.75;;;;;;;;;;5067421;27;88877;-80
2023/12/11 05:05:42;;;;;;;14.95;2.70;;;;;;;;;;5068503;27;88912;-81
2023/12/11 05:08:08;;;;;;;13.35;2.45;;;;;;;;;;5050503;27;89947;-81
2023/12/11 05:10:35;;;;;;;11.05;2.22;;;;;;;;;;5066615;27;90489;-81
2023/12/11 05:13:02;;;;;;;13.43;2.67;;;;;;;;;;5070075;27;89289;-81
2023/12/11 05:15:28;;;;;;;12.90;2.20;;;;;;;;;;5030232;27;88422;-81
2023/12/11 05:17:55;;;;;;;13.65;3.03;;;;;;;;;;5046884;27;89523;-81
2023/12/11 05:20:24;;;;;;;14.15;2.70;;;;;;;;;;5049357;27;88042;-81
2023/12/11 05:22:51;;;;;;;12.23;2.67;;;;;;;;;;5046404;27;90211;-81
2023/12/11 05:25:19;;;;;;;12.70;2.60;;;;;;;;;;5062955;27;88644;-82
2023/12/11 05:27:45;;;;;;;15.80;2.80;;;;;;;;;;5062277;27;88037;-81
2023/12/11 05:30:12;;;;;;;14.77;2.47;;;;;;;;;;5046262;27;90653;-82
2023/12/11 05:32:42;;;;;;;15.68;2.60;;;;;;;;;;5065868;27;88305;-82
2023/12/11 05:35:08;;;;;;;14.23;2.70;;;;;;;;;;5047472;27;88030;-82
2023/12/11 05:37:35;;;;;;;10.40;2.10;;;;;;;;;;5064460;27;91182;-81
2023/12/11 05:40:01;;;;;;;12.88;2.45;;;;;;;;;;5067663;27;92470;-82
2023/12/11 05:42:48;;;;;;;13.57;2.30;;;;;;;;;;5067404;27;88399;-81
2023/12/11 05:45:15;;;;;;;12.88;2.58;;;;;;;;;;5067166;27;88253;-82
2023/12/11 05:47:41;;;;;;;11.30;2.15;;;;;;;;;;5066038;27;89715;-81
2023/12/11 05:50:08;;;;;;;16.85;2.88;;;;;;;;;;5066602;27;90268;-82
2023/12/11 05:52:35;;;;;;;11.88;2.47;;;;;;;;;;5068208;27;87741;-83
2023/12/11 05:55:01;;;;;;;14.30;2.58;;;;;;;;;;5070896;27;94157;-83
2023/12/11 05:57:28;;;;;;;14.00;2.47;;;;;;;;;;5069227;27;88669;-82
2023/12/11 05:59:55;;;;;;;14.20;2.38;;;;;;;;;;5051813;27;89607;-82
2023/12/11 06:02:23;;;;;;;13.55;2.70;;;;;;;;;;5071211;27;91381;-82
2023/12/11 06:04:50;;;;;;;12.57;2.88;;;;;;;;;;5071996;27;88274;-82
2023/12/11 06:07:16;;;;;;;12.75;2.40;;;;;;;;;;5070638;27;89960;-80
2023/12/11 06:09:43;;;;;;;13.43;2.35;;;;;;;;;;5070748;27;88323;-81
2023/12/11 06:12:09;;;;;;;13.45;2.53;;;;;;;;;;5070764;27;88235;-79
2023/12/11 06:14:39;;;;;;;12.23;2.40;;;;;;;;;;5072145;27;88455;-80
2023/12/11 06:17:07;;;;;;;11.50;2.60;;;;;;;;;;5071789;27;87951;-82
2023/12/11 06:19:33;;;;;;;9.13;2.40;;;;;;;;;;5070875;27;87642;-79
2023/12/11 06:22:00;;;;;;;11.95;2.17;;;;;;;;;;5070710;27;88182;-80
2023/12/11 06:24:28;;;;;;;11.43;2.35;;;;;;;;;;5069457;27;94980;-81
2023/12/11 06:26:54;;;;;;;11.43;2.35;;;;;;;;;;5070138;27;88801;-81
2023/12/11 06:29:21;;;;;;;10.25;2.20;;;;;;;;;;5069422;27;90774;-82
2023/12/11 06:31:47;;;;;;;13.38;2.42;;;;;;;;;;5070956;27;87674;-81
2023/12/11 06:34:15;;;;;;;10.88;2.10;;;;;;;;;;5069786;27;88277;-81
2023/12/11 06:36:41;;;;;;;;;;;;;;;;;;5075489;27;88780;-83
2023/12/11 06:39:08;;;;;;;14.95;2.53;;;;;;;;;;5071548;27;89132;-81
2023/12/11 06:41:35;;;;;;;10.90;2.47;;;;;;;;;;5070024;27;91464;-81
2023/12/11 06:44:01;;;;;;;11.05;2.10;;;;;;;;;;5071374;27;94814;-81
2023/12/11 06:46:29;;;;;;;16.52;2.60;;;;;;;;;;5053374;27;89291;-81
2023/12/11 06:48:56;;;;;;;9.25;2.00;;;;;;;;;;5069888;27;90429;-81
2023/12/11 06:51:24;;;;;;;12.48;2.20;;;;;;;;;;5071475;27;88598;-82
2023/12/11 06:53:51;;;;;;;11.23;2.20;;;;;;;;;;5069679;27;89172;-82
2023/12/11 06:56:21;;;;;;;12.00;2.15;;;;;;;;;;5071844;27;88246;-83
2023/12/11 06:58:47;;;;;;;12.38;2.47;;;;;;;;;;5073333;27;90293;-82
2023/12/11 07:01:14;;;;;;;12.05;2.42;;;;;;;;;;5071321;27;88188;-80
2023/12/11 07:03:41;;;;;;;9.70;2.00;;;;;;;;;;5068891;27;88685;-82
2023/12/11 07:06:08;;;;;;;10.43;2.20;;;;;;;;;;5069949;27;87612;-82
2023/12/11 07:08:35;;;;;;;11.93;2.25;;;;;;;;;;5071170;27;88585;-81
2023/12/11 07:11:02;;;;;;;10.02;2.30;;;;;;;;;;5067981;27;91133;-78
2023/12/11 07:13:29;;;;;;;14.43;2.92;;;;;;;;;;5069609;27;88358;-78
2023/12/11 07:15:56;;;;;;;12.50;2.28;;;;;;;;;;5067067;27;88084;-82
2023/12/11 07:18:22;;;;;;;12.15;2.13;;;;;;;;;;5067786;27;90880;-80
2023/12/11 07:20:49;;;;;;;11.88;2.25;;;;;;;;;;5072094;27;86919;-83
2023/12/11 07:23:16;;;;;;;10.18;1.85;;;;;;;;;;5050716;27;90976;-82
2023/12/11 07:25:42;;;;;;;12.52;2.40;;;;;;;;;;5068650;27;88108;-83
2023/12/11 07:28:09;;;;;;;10.75;2.13;;;;;;;;;;5067571;27;90502;-85
2023/12/11 07:30:36;;;;;;;10.25;2.15;;;;;;;;;;5067739;27;88664;-83
2023/12/11 07:33:03;;;;;;;8.00;1.80;;;;;;;;;;5065153;27;88084;-82
2023/12/11 07:35:30;;;;;;;8.55;2.03;;;;;;;;;;5065179;27;88619;-83
2023/12/11 07:37:56;;;;;;;7.53;2.05;;;;;;;;;;5064620;27;90444;-84
2023/12/11 07:40:23;;;;;;;9.85;2.00;;;;;;;;;;5066395;27;87781;-80
2023/12/11 07:42:49;;;;;;;9.00;2.10;;;;;;;;;;5086790;27;87910;-77
2023/12/11 07:45:16;;;;;;;8.52;1.67;;;;;;;;;;5064250;27;89397;-79
2023/12/11 07:47:43;;;;;;;8.35;1.88;;;;;;;;;;5065432;27;87613;-78
2023/12/11 07:50:09;;;;;;;8.30;1.83;;;;;;;;;;5064693;27;87809;-81
2023/12/11 07:52:36;;;;;;;10.85;1.80;;;;;;;;;;5063845;27;88581;-81
2023/12/11 07:55:03;;;;;;;9.90;1.85;;;;;;;;;;5063797;27;91651;-80
2023/12/11 07:57:30;;;;;;;9.07;1.92;;;;;;;;;;5065937;27;88007;-81
2023/12/11 07:59:58;;;;;;;7.18;1.75;;;;;;;;;;5063626;27;87672;-81
2023/12/11 08:02:24;;;;;;;10.60;1.80;;;;;;;;;;5065385;27;88093;-82
2023/12/11 08:04:51;;;;;;;9.23;1.77;;;;;;;;;;5068062;27;88565;-81
2023/12/11 08:07:18;;;;;;;8.68;1.85;;;;;;;;;;5065411;27;88155;-81
2023/12/11 08:09:45;;;;;;;7.13;1.67;;;;;;;;;;5062801;27;89802;-81
2023/12/11 08:12:11;;;;;;;6.82;1.60;;;;;;;;;;5064510;27;89718;-82
2023/12/11 08:14:38;;;;;;;7.43;1.70;;;;;;;;;;5063807;27;90425;-82
2023/12/11 08:17:06;;;;;;;9.27;1.88;;;;;;;;;;5045376;27;91241;-82
2023/12/11 08:19:33;;;;;;;9.43;1.77;;;;;;;;;;5064781;27;87955;-81
2023/12/11 08:22:00;;;;;;;7.25;1.60;;;;;;;;;;5063296;27;87651;-80
2023/12/11 08:24:27;;;;;;;7.65;1.60;;;;;;;;;;5068277;27;88962;-81
2023/12/11 08:26:54;;;;;;;7.15;1.80;;;;;;;;;;5064133;27;88188;-80
2023/12/11 08:29:21;;;;;;;9.23;1.67;;;;;;;;;;5064252;27;88845;-81
2023/12/11 08:31:48;;;;;;;6.68;1.65;;;;;;;;;;5063697;27;87813;-81
2023/12/11 08:34:15;;;;;;;6.88;1.52;;;;;;;;;;5063614;27;90985;-80
2023/12/11 08:36:41;;;;;;;8.57;1.75;;;;;;;;;;5062379;27;91021;-81
2023/12/11 08:39:09;;;;;;;6.60;1.60;;;;;;;;;;5063594;27;87877;-82
2023/12/11 08:41:36;;;;;;;8.25;1.52;;;;;;;;;;5062371;27;88624;-81
2023/12/11 08:44:03;;;;;;;6.63;1.55;;;;;;;;;;5062442;27;93403;-81
2023/12/11 08:46:31;;;;;;;6.10;1.60;;;;;;;;;;5066566;27;88081;-80
2023/12/11 08:48:58;;;;;;;7.45;1.30;;;;;;;;;;5065114;27;88254;-81
2023/12/11 08:51:25;;;;;;;7.32;1.60;;;;;;;;;;5063201;27;89584;-81
2023/12/11 08:53:52;;;;;;;5.22;1.30;;;;;;;;;;5063454;27;89871;-81
2023/12/11 08:56:23;;;;;;;7.72;1.70;;;;;;;;;;5064694;27;88687;-80
2023/12/11 08:58:54;;;;;;;6.85;1.55;;;;;;;;;;5064425;27;87053;-81
2023/12/11 09:01:21;;;;;;;5.40;1.60;;;;;;;;;;5064607;27;87917;-81
2023/12/11 09:03:48;;;;;;;6.35;1.23;;;;;;;;;;5064339;27;88318;-81
2023/12/11 09:06:15;;;;;;;7.45;1.63;;;;;;;;;;5063890;27;88953;-81
2023/12/11 09:08:42;;;;;;;4.70;1.25;;;;;;;;;;5067753;27;89119;-82
2023/12/11 09:11:08;;;;;;;5.82;1.58;;;;;;;;;;5064532;27;87694;-81
2023/12/11 09:13:35;;;;;;;7.10;1.60;;;;;;;;;;5064528;27;87959;-81
2023/12/11 09:16:02;;;;;;;4.95;1.35;;;;;;;;;;5064301;27;92392;-81
2023/12/11 09:18:29;;;;;;;;;;;;;;;;;;5065151;27;87697;-82
2023/12/11 09:20:55;;;;;;;5.18;1.35;;;;;;;;;;5063619;27;97091;-81
2023/12/11 09:23:22;;;;;;;4.88;1.20;;;;;;;;;;5065461;27;87961;-82
2023/12/11 09:25:49;;;;;;;4.32;1.48;;;;;;;;;;5062498;27;87779;-81
2023/12/11 09:28:15;;;;;;;7.40;1.48;;;;;;;;;;5064019;27;87631;-81
2023/12/11 09:30:42;;;;;;;6.65;1.35;;;;;;;;;;5065503;27;91288;-81
2023/12/11 09:33:09;;;;;;;4.30;1.20;;;;;;;;;;5065472;27;88982;-81
2023/12/11 09:35:40;;;;;;;5.50;1.23;;;;;;;;;;5066831;27;88345;-81
2023/12/11 09:38:07;;;;;;;6.57;1.45;;;;;;;;;;5066590;27;87697;-82
2023/12/11 09:40:34;;;;;;;6.95;1.50;;;;;;;;;;5066634;27;87964;-82
2023/12/11 09:43:02;;;;;;;6.50;1.30;;;;;;;;;;5066730;27;90504;-81
2023/12/11 09:45:29;;;;;;;5.75;1.50;;;;;;;;;;5066520;27;89251;-81
2023/12/11 09:47:56;;;;;;;;;;;;;;;;;;5064506;27;88152;-82
2023/12/11 09:50:36;;;;;;;4.97;1.27;;;;;;;;;;5068088;27;90308;-81
2023/12/11 09:53:02;;;;;;;5.15;1.20;;;;;;;;;;5070950;27;87549;-82
2023/12/11 09:55:29;;;;;;;5.93;1.40;;;;;;;;;;5067573;27;88879;-82
2023/12/11 09:57:56;;;;;;;4.85;1.30;;;;;;;;;;5065879;27;88773;-82
2023/12/11 10:00:24;;;;;;;6.57;1.42;;;;;;;;;;5066174;27;90795;-82
2023/12/11 10:02:51;;;;;;;5.25;1.40;;;;;;;;;;5067552;27;88926;-82
2023/12/11 10:05:24;;;;;;;4.95;1.38;;;;;;;;;;5068271;27;87563;-82
2023/12/11 10:07:52;;;;;;;3.90;1.27;;;;;;;;;;5067782;27;89390;-82
2023/12/11 10:10:31;;;;;;;4.88;1.25;;;;;;;;;;5067591;27;88354;-82
2023/12/11 10:12:58;;;;;;;5.25;1.38;;;;;;;;;;5067712;27;90131;-82
2023/12/11 10:15:25;;;;;;;;;;;;;;;;;;5070062;27;87747;-82
2023/12/11 10:18:04;;;;;;;6.05;1.40;;;;;;;;;;5068708;27;89435;-82
2023/12/11 10:20:35;;;;;;;3.97;1.30;;;;;;;;;;5066375;27;90176;-82
2023/12/11 10:23:09;;;;;;;5.57;1.55;;;;;;;;;;5066663;27;91116;-82
2023/12/11 10:25:41;;;;;;;4.63;1.40;;;;;;;;;;5065365;27;89260;-83
2023/12/11 10:28:12;;;;;;;4.18;1.20;;;;;;;;;;5067770;27;87929;-82
2023/12/11 10:30:49;;;;;;;5.95;1.60;;;;;;;;;;5066047;27;89022;-81
2023/12/11 10:33:18;;;;;;;5.30;1.33;;;;;;;;;;5048419;27;90104;-81
2023/12/11 10:35:48;;;;;;;5.93;1.30;;;;;;;;;;5068254;27;88011;-81
2023/12/11 10:38:25;;;;;;;4.68;1.40;;;;;;;;;;5067693;27;86925;-81
2023/12/11 10:40:53;;;;;;;5.97;1.50;;;;;;;;;;5066242;27;87681;-79
2023/12/11 10:43:20;;;;;;;4.80;1.20;;;;;;;;;;5067156;27;88338;-80
2023/12/11 10:45:47;;;;;;;5.57;1.20;;;;;;;;;;5063602;27;88790;-80
2023/12/11 10:48:19;;;;;;;4.03;1.30;;;;;;;;;;5066097;27;91597;-81
2023/12/11 10:50:47;;;;;;;4.13;1.15;;;;;;;;;;5067334;27;89017;-82
2023/12/11 10:53:14;;;;;;;;;;;;;;;;;;5066431;27;88061;-81
2023/12/11 10:55:41;;;;;;;6.03;1.48;;;;;;;;;;5067718;27;88178;-81
2023/12/11 10:58:08;;;;;;;4.45;1.20;;;;;;;;;;5070688;27;89048;-81
2023/12/11 11:00:36;;;;;;;5.20;1.23;;;;;;;;;;5067027;27;87808;-81
2023/12/11 11:03:04;;;;;;;3.92;1.20;;;;;;;;;;5066985;27;87563;-82
2023/12/11 11:05:31;;;;;;;5.63;1.50;;;;;;;;;;5067324;27;88100;-81
2023/12/11 11:08:19;;;;;;;6.03;1.40;;;;;;;;;;5066745;27;88632;-81
2023/12/11 11:10:59;;;;;;;5.32;1.42;;;;;;;;;;5064635;27;88761;-81
2023/12/11 11:13:48;;;;;;;4.22;1.30;;;;;;;;;;5065184;27;87598;-82
2023/12/11 11:16:15;;;;;;;4.38;1.13;;;;;;;;;;5065746;27;92635;-82
2023/12/11 11:19:03;;;;;;;4.53;1.30;;;;;;;;;;5066602;27;89650;-81
2023/12/11 11:21:30;;;;;;;4.78;1.52;;;;;;;;;;5068618;27;87976;-81
2023/12/11 11:23:56;;;;;;;4.30;1.25;;;;;;;;;;5063902;27;89057;-81
2023/12/11 11:26:34;;;;;;;4.78;1.40;;;;;;;;;;5064848;27;89641;-81
2023/12/11 11:29:04;;;;;;;4.68;1.20;;;;;;;;;;5066750;27;87968;-81
2023/12/11 11:31:51;;;;;;;4.05;1.30;;;;;;;;;;5066671;27;95773;-81
2023/12/11 11:34:38;;;;;;;5.07;1.30;;;;;;;;;;5065154;27;91214;-80
2023/12/11 11:37:13;;;;;;;3.42;1.27;;;;;;;;;;5065961;27;88701;-81
2023/12/11 11:39:56;;;;;;;3.53;1.10;;;;;;;;;;5064800;27;87771;-81
2023/12/11 11:42:24;;;;;;;6.25;1.38;;;;;;;;;;5065137;27;87958;-81
2023/12/11 11:44:57;;;;;;;6.05;1.52;;;;;;;;;;5068646;27;87825;-81
2023/12/11 11:47:27;;;;;;;3.97;1.20;;;;;;;;;;5064734;27;87724;-81
2023/12/11 11:50:03;;;;;;;5.50;1.15;;;;;;;;;;5065522;27;88104;-81
2023/12/11 11:52:30;;;;;;;3.50;1.20;;;;;;;;;;5066625;27;88193;-81
2023/12/11 11:55:02;;;;;;;5.43;1.30;;;;;;;;;;5066617;27;87175;-81
2023/12/11 11:57:29;;;;;;;6.28;1.52;;;;;;;;;;5046430;27;89476;-81
2023/12/11 11:59:56;;;;;;;5.47;1.30;;;;;;;;;;5064169;27;88287;-82
2023/12/11 12:02:23;;;;;;;6.25;1.45;;;;;;;;;;5064530;27;89335;-81
2023/12/11 12:04:49;;;;;;;4.95;1.20;;;;;;;;;;5065910;27;88814;-82
2023/12/11 12:07:16;;;;;;;5.55;1.30;;;;;;;;;;5068012;27;88339;-81
2023/12/11 12:09:45;;;;;;;3.58;1.08;;;;;;;;;;5065092;27;87679;-81
2023/12/11 12:12:15;;;;;;;3.97;1.15;;;;;;;;;;5064989;27;90664;-80
2023/12/11 12:14:42;;;;;;;4.15;1.20;;;;;;;;;;5065226;27;88933;-81
2023/12/11 12:17:09;;;;;;;4.85;1.20;;;;;;;;;;5065834;27;88382;-82
2023/12/11 12:19:36;;;;;;;4.93;1.25;;;;;;;;;;5064095;27;87969;-82
2023/12/11 12:22:03;;;;;;;3.85;1.27;;;;;;;;;;5064529;27;94079;-81
2023/12/11 12:24:30;;;;;;;3.72;1.13;;;;;;;;;;5065469;27;88053;-81
2023/12/11 12:26:57;;;;;;;4.50;1.30;;;;;;;;;;5066083;27;88998;-80
2023/12/11 12:29:25;;;;;;;4.50;1.27;;;;;;;;;;5067483;27;87869;-79
2023/12/11 12:31:52;;;;;;;4.80;1.27;;;;;;;;;;5064955;27;89202;-80
2023/12/11 12:34:18;;;;;;;4.55;1.33;;;;;;;;;;5066403;27;87794;-80
2023/12/11 12:36:45;;;;;;;3.67;1.10;;;;;;;;;;5065435;27;87978;-81
2023/12/11 12:39:12;;;;;;;4.68;1.40;;;;;;;;;;5065841;27;88507;-82
2023/12/11 12:41:39;;;;;;;4.50;1.30;;;;;;;;;;5063292;27;88653;-83
2023/12/11 12:44:06;;;;;;;3.35;1.23;;;;;;;;;;5066413;27;87941;-81
2023/12/11 12:46:39;;;;;;;4.32;1.00;;;;;;;;;;5065933;27;88723;-81
2023/12/11 12:49:07;;;;;;;4.13;1.13;;;;;;;;;;5050150;27;90007;-81
2023/12/11 12:51:42;;;;;;;3.83;1.20;;;;;;;;;;5063539;27;89437;-82
2023/12/11 12:54:10;;;;;;;3.85;1.10;;;;;;;;;;5064625;27;91665;-82
2023/12/11 12:56:37;;;;;;;4.00;1.20;;;;;;;;;;5065678;27;87863;-82
2023/12/11 12:59:05;;;;;;;4.90;1.45;;;;;;;;;;5065278;27;88856;-81
2023/12/11 13:01:38;;;;;;;5.25;1.20;;;;;;;;;;5065181;27;88791;-84
2023/12/11 13:04:06;;;;;;;4.60;1.13;;;;;;;;;;5046625;27;94118;-81
2023/12/11 13:06:33;;;;;;;3.72;1.00;;;;;;;;;;5064956;27;88343;-81
2023/12/11 13:09:00;;;;;;;3.08;1.10;;;;;;;;;;5064398;27;87948;-81
2023/12/11 13:11:40;;;;;;;4.75;1.10;;;;;;;;;;5066285;27;88707;-81
2023/12/11 13:14:13;;;;;;;3.92;1.10;;;;;;;;;;5071955;27;91737;-82
2023/12/11 13:16:40;;;;;;;3.88;1.10;;;;;;;;;;5070334;27;88471;-81
2023/12/11 13:19:11;;;;;;;3.95;1.00;;;;;;;;;;5072562;27;87886;-83
2023/12/11 13:21:37;;;;;;;4.50;1.10;;;;;;;;;;5081113;27;87729;-82
2023/12/11 13:24:05;;;;;;;5.47;1.27;;;;;;;;;;5067149;27;87964;-80
2023/12/11 13:26:31;;;;;;;5.35;1.10;;;;;;;;;;5073134;27;90589;-80
2023/12/11 13:28:58;;;;;;;3.13;1.15;;;;;;;;;;5070903;27;88095;-81
2023/12/11 13:31:25;;;;;;;4.95;1.00;;;;;;;;;;5078791;27;88013;-80
2023/12/11 13:33:52;;;;;;;4.57;1.02;;;;;;;;;;5058983;27;89843;-81
2023/12/11 13:36:18;;;;;;;4.75;1.00;;;;;;;;;;5068894;27;87506;-81
2023/12/11 13:38:45;;;;;;;2.72;0.80;;;;;;;;;;5071973;27;88508;-82
2023/12/11 13:41:13;;;;;;;6.07;1.00;;;;;;;;;;5078326;27;89202;-81
2023/12/11 13:43:40;;;;;;;4.50;1.30;;;;;;;;;;5072796;27;90109;-82
2023/12/11 13:46:07;;;;;;;5.38;1.10;;;;;;;;;;5084727;27;89431;-82
2023/12/11 13:48:34;;;;;;;5.07;1.40;;;;;;;;;;5083762;27;88169;-82
2023/12/11 13:51:00;;;;;;;4.25;1.15;;;;;;;;;;5082846;27;89372;-82
2023/12/11 13:53:27;;;;;;;4.38;1.23;;;;;;;;;;5082598;27;90527;-81
2023/12/11 13:55:54;;;;;;;5.22;1.23;;;;;;;;;;5086200;27;88281;-82
2023/12/11 13:58:20;;;;;;;4.38;1.10;;;;;;;;;;5083927;27;88290;-82
2023/12/11 14:00:47;;;;;;;3.70;1.15;;;;;;;;;;5082727;27;87888;-82
2023/12/11 14:03:14;;;;;;;5.05;1.30;;;;;;;;;;5082028;27;88396;-82
2023/12/11 14:05:44;;;;;;;3.88;1.10;;;;;;;;;;5081995;27;89294;-82
2023/12/11 14:08:13;;;;;;;4.03;1.15;;;;;;;;;;5082949;27;88071;-81
2023/12/11 14:10:40;;;;;;;5.68;1.20;;;;;;;;;;5072371;27;90515;-82
2023/12/11 14:13:12;;;;;;;3.92;1.25;;;;;;;;;;5064007;27;88247;-82
2023/12/11 14:15:40;;;;;;;3.72;1.10;;;;;;;;;;5063743;27;88003;-82
2023/12/11 14:18:06;;;;;;;7.30;1.30;;;;;;;;;;5064543;27;88272;-81
2023/12/11 14:20:34;;;;;;;7.18;1.42;;;;;;;;;;5063864;27;89296;-82
2023/12/11 14:23:01;;;;;;;5.15;1.20;;;;;;;;;;5065413;27;90876;-82
2023/12/11 14:25:28;;;;;;;3.70;1.20;;;;;;;;;;5065384;27;89589;-82
2023/12/11 14:27:55;;;;;;;5.45;1.30;;;;;;;;;;5064469;27;87788;-81
2023/12/11 14:30:21;;;;;;;3.22;1.02;;;;;;;;;;5065672;27;88783;-81
2023/12/11 14:32:48;;;;;;;4.03;1.10;;;;;;;;;;5065769;27;90424;-81
2023/12/11 14:35:15;;;;;;;3.85;1.40;;;;;;;;;;5066782;27;88090;-82
2023/12/11 14:37:41;;;;;;;4.10;1.02;;;;;;;;;;5069085;27;88000;-81
2023/12/11 14:40:08;;;;;;;3.08;1.00;;;;;;;;;;5067126;27;87645;-82
2023/12/11 14:42:35;;;;;;;6.35;1.25;;;;;;;;;;5067171;27;88053;-81